Time;durP1;ratioP1;P1;durP2;ratioP2;P2;SDS_P1;SDS_P2;PMS_P1;PMS_P2;Temp;Humidity;BMP_temperature;BMP_pressure;BME280_temperature;BME280_humidity;BME280_pressure;Samples;Min_cycle;Max_cycle;Signal;HPM_P1;HPM_P2
2023/09/04 00:01:43;;;;;;;1.23;0.60;;;15.10;99.90;;;;;;4995521;28;20038;-75
2023/09/04 00:04:10;;;;;;;1.70;0.98;;;15.10;99.90;;;;;;5027659;28;20418;-75
2023/09/04 00:06:36;;;;;;;1.60;0.80;;;15.10;99.90;;;;;;5011798;28;20038;-74
2023/09/04 00:09:04;;;;;;;1.50;0.88;;;15.10;99.90;;;;;;4994544;28;20421;-74
2023/09/04 00:11:31;;;;;;;1.55;0.60;;;15.10;99.90;;;;;;4994410;28;20044;-74
2023/09/04 00:13:57;;;;;;;1.20;0.63;;;15.10;99.90;;;;;;4978579;28;20402;-74
2023/09/04 00:16:24;;;;;;;1.10;0.60;;;15.10;99.90;;;;;;5011182;28;20053;-75
2023/09/04 00:18:50;;;;;;;1.25;0.65;;;15.10;99.90;;;;;;4995732;28;20038;-74
2023/09/04 00:21:17;;;;;;;1.17;0.77;;;15.10;99.90;;;;;;5010795;28;20054;-75
2023/09/04 00:23:43;;;;;;;1.63;1.00;;;15.10;99.90;;;;;;4994316;28;20042;-74
2023/09/04 00:26:09;;;;;;;1.30;0.73;;;15.00;99.90;;;;;;5027709;28;20033;-75
2023/09/04 00:28:36;;;;;;;0.90;0.52;;;15.10;99.90;;;;;;4978875;28;20496;-73
2023/09/04 00:31:02;;;;;;;1.10;0.70;;;15.00;99.90;;;;;;4977056;28;20038;-74
2023/09/04 00:33:29;;;;;;;1.40;0.85;;;15.00;99.90;;;;;;5010686;28;20385;-74
2023/09/04 00:35:56;;;;;;;1.77;0.70;;;15.00;99.90;;;;;;4978920;28;20029;-74
2023/09/04 00:38:22;;;;;;;1.60;0.70;;;15.00;99.90;;;;;;4996781;28;20114;-74
2023/09/04 00:40:48;;;;;;;1.00;0.70;;;15.00;99.90;;;;;;4994000;28;20034;-75
2023/09/04 00:43:15;;;;;;;1.15;0.60;;;15.00;99.90;;;;;;5011557;28;20033;-75
2023/09/04 00:45:42;;;;;;;2.03;1.33;;;15.00;99.90;;;;;;4994963;28;20029;-75
2023/09/04 00:48:10;;;;;;;1.77;0.80;;;15.00;99.90;;;;;;4995261;28;20041;-73
2023/09/04 00:50:38;;;;;;;2.85;0.77;;;14.90;99.90;;;;;;4993843;28;20040;-74
2023/09/04 00:53:08;;;;;;;1.30;0.80;;;14.90;99.90;;;;;;4995587;28;20508;-75
2023/09/04 00:55:35;;;;;;;1.83;0.75;;;14.90;99.90;;;;;;4978787;28;20034;-74
2023/09/04 00:58:03;;;;;;;1.25;0.63;;;14.90;99.90;;;;;;4995746;28;20045;-74
2023/09/04 01:00:30;;;;;;;1.52;0.80;;;14.90;99.90;;;;;;4977310;28;20061;-75
2023/09/04 01:02:59;;;;;;;1.50;0.73;;;14.90;99.90;;;;;;5010815;28;20512;-75
2023/09/04 01:05:28;;;;;;;2.08;0.70;;;14.90;99.90;;;;;;4995406;28;20185;-75
2023/09/04 01:07:54;;;;;;;1.33;0.60;;;14.90;99.90;;;;;;4997840;28;20488;-74
2023/09/04 01:10:21;;;;;;;1.88;0.75;;;14.80;99.90;;;;;;5027751;28;20760;-74
2023/09/04 01:13:03;;;;;;;1.10;0.70;;;14.80;99.90;;;;;;4999025;28;20033;-75
2023/09/04 01:15:31;;;;;;;1.35;0.75;;;14.80;99.90;;;;;;5000052;28;20437;-75
2023/09/04 01:17:59;;;;;;;1.08;0.77;;;14.80;99.90;;;;;;5032087;28;20437;-75
2023/09/04 01:20:28;;;;;;;1.90;0.80;;;14.80;99.90;;;;;;4996635;28;20404;-74
2023/09/04 01:22:58;;;;;;;1.90;0.95;;;14.70;99.90;;;;;;5000907;28;20037;-74
2023/09/04 01:25:32;;;;;;;1.60;0.90;;;14.70;99.90;;;;;;4998872;28;20041;-74
2023/09/04 01:28:10;;;;;;;2.05;1.17;;;14.70;99.90;;;;;;5015679;28;20048;-74
2023/09/04 01:30:39;;;;;;;1.30;0.73;;;14.70;99.90;;;;;;4980801;28;20520;-75
2023/09/04 01:33:11;;;;;;;3.47;2.58;;;14.70;99.90;;;;;;5000039;28;20038;-75
2023/09/04 01:35:38;;;;;;;1.58;0.98;;;14.70;99.90;;;;;;4998653;28;20417;-74
2023/09/04 01:38:05;;;;;;;3.15;1.63;;;14.70;99.90;;;;;;4982764;28;20045;-75
2023/09/04 01:40:32;;;;;;;2.83;1.10;;;14.70;99.90;;;;;;4981686;28;20148;-75
2023/09/04 01:42:58;;;;;;;1.80;1.20;;;14.70;99.90;;;;;;4982669;28;20044;-75
2023/09/04 01:45:24;;;;;;;2.10;1.40;;;14.70;99.90;;;;;;5029260;28;20064;-74
2023/09/04 01:47:51;;;;;;;1.90;1.58;;;14.70;99.90;;;;;;5033646;28;20061;-75
2023/09/04 01:50:17;;;;;;;1.20;0.90;;;14.70;99.90;;;;;;4998754;28;20041;-75
2023/09/04 01:52:44;;;;;;;1.48;1.20;;;14.70;99.90;;;;;;5032471;28;20431;-75
2023/09/04 01:55:10;;;;;;;2.83;1.60;;;14.70;99.90;;;;;;4981725;28;20042;-74
2023/09/04 01:57:37;;;;;;;1.75;1.40;;;14.60;99.90;;;;;;5014661;28;20053;-75
2023/09/04 02:00:04;;;;;;;2.50;1.33;;;14.60;99.90;;;;;;4997431;28;20038;-75
2023/09/04 02:02:41;;;;;;;2.22;1.17;;;14.60;99.90;;;;;;4998491;28;20041;-74
2023/09/04 02:05:08;;;;;;;1.85;1.13;;;14.60;99.90;;;;;;4980835;28;20034;-74
2023/09/04 02:07:34;;;;;;;1.52;1.20;;;14.60;99.90;;;;;;5014897;28;20037;-74
2023/09/04 02:10:01;;;;;;;2.05;1.63;;;14.50;99.90;;;;;;4997658;28;20026;-74
2023/09/04 02:12:27;;;;;;;3.28;1.95;;;14.50;99.90;;;;;;4997549;28;20038;-75
2023/09/04 02:14:53;;;;;;;2.17;1.73;;;14.50;99.90;;;;;;4997351;28;20037;-74
2023/09/04 02:17:20;;;;;;;1.50;1.00;;;14.50;99.90;;;;;;4981730;28;20122;-75
2023/09/04 02:19:47;;;;;;;1.80;1.13;;;14.50;99.90;;;;;;4998896;28;20034;-75
2023/09/04 02:22:14;;;;;;;1.98;1.33;;;14.50;99.90;;;;;;4980769;28;20077;-75
2023/09/04 02:24:42;;;;;;;1.85;1.05;;;14.50;99.90;;;;;;5013415;28;20034;-75
2023/09/04 02:27:08;;;;;;;1.40;1.08;;;14.40;99.90;;;;;;4983258;28;20029;-74
2023/09/04 02:29:34;;;;;;;1.60;1.13;;;14.40;99.90;;;;;;5013107;28;20042;-76
2023/09/04 02:32:01;;;;;;;1.73;1.20;;;14.40;99.90;;;;;;5014185;28;20052;-75
2023/09/04 02:34:27;;;;;;;2.38;1.17;;;14.40;99.90;;;;;;4996913;28;20060;-74
2023/09/04 02:36:53;;;;;;;1.85;1.20;;;14.30;99.90;;;;;;4997436;28;20034;-75
2023/09/04 02:39:20;;;;;;;2.10;1.48;;;14.30;99.90;;;;;;4996945;28;20042;-74
2023/09/04 02:41:46;;;;;;;2.08;1.42;;;14.30;99.90;;;;;;4996370;28;20389;-75
2023/09/04 02:44:13;;;;;;;1.65;1.15;;;14.30;99.90;;;;;;4996901;28;20596;-75
2023/09/04 02:46:39;;;;;;;2.17;1.58;;;14.30;99.90;;;;;;5013407;28;20042;-74
2023/09/04 02:49:06;;;;;;;2.05;1.50;;;14.20;99.90;;;;;;4998233;28;20041;-75
2023/09/04 02:51:32;;;;;;;2.17;1.60;;;14.20;99.90;;;;;;4980769;28;20059;-74
2023/09/04 02:53:58;;;;;;;2.15;1.77;;;14.20;99.90;;;;;;4981577;28;20042;-74
2023/09/04 02:56:25;;;;;;;2.50;2.00;;;14.20;99.90;;;;;;4999698;28;20037;-76
2023/09/04 02:58:51;;;;;;;2.08;1.35;;;14.10;99.90;;;;;;5012962;28;20034;-75
2023/09/04 03:01:18;;;;;;;2.00;1.50;;;14.20;99.90;;;;;;5028454;28;20485;-74
2023/09/04 03:03:46;;;;;;;2.05;1.38;;;14.10;99.90;;;;;;4980679;28;20033;-75
2023/09/04 03:06:12;;;;;;;2.40;1.50;;;14.10;99.90;;;;;;5013691;28;20046;-75
2023/09/04 03:08:39;;;;;;;2.80;1.63;;;14.10;99.90;;;;;;5026979;28;20033;-74
2023/09/04 03:11:10;;;;;;;2.75;1.90;;;14.10;99.90;;;;;;4998119;28;20037;-75
2023/09/04 03:13:37;;;;;;;2.30;1.75;;;14.00;99.90;;;;;;4979974;28;20033;-74
2023/09/04 03:16:05;;;;;;;2.70;1.73;;;14.00;99.90;;;;;;4981450;28;20044;-74
2023/09/04 03:18:33;;;;;;;2.15;1.42;;;14.00;99.90;;;;;;5012689;28;20040;-74
2023/09/04 03:21:02;;;;;;;1.83;1.38;;;14.00;99.90;;;;;;5012333;28;20505;-75
2023/09/04 03:23:29;;;;;;;1.90;1.48;;;14.00;99.90;;;;;;4980515;28;20473;-75
2023/09/04 03:25:56;;;;;;;2.08;1.23;;;14.00;99.90;;;;;;4980039;28;20048;-75
2023/09/04 03:28:23;;;;;;;2.08;1.58;;;13.90;99.90;;;;;;4981074;28;20261;-74
2023/09/04 03:30:50;;;;;;;1.85;1.27;;;13.90;99.90;;;;;;4995225;28;20040;-74
2023/09/04 03:33:21;;;;;;;2.10;1.42;;;13.90;99.90;;;;;;4996688;28;20036;-73
2023/09/04 03:35:47;;;;;;;1.92;1.60;;;13.90;99.90;;;;;;4996139;28;20042;-75
2023/09/04 03:38:13;;;;;;;2.00;1.60;;;13.90;99.90;;;;;;4996034;28;20053;-75
2023/09/04 03:40:40;;;;;;;3.03;1.73;;;13.80;99.90;;;;;;5027962;28;20512;-74
2023/09/04 03:43:07;;;;;;;2.75;2.13;;;13.80;99.90;;;;;;4996174;28;20129;-74
2023/09/04 03:45:35;;;;;;;2.47;1.55;;;13.80;99.90;;;;;;5027930;28;20034;-75
2023/09/04 03:48:02;;;;;;;2.40;1.77;;;13.80;99.90;;;;;;5010144;28;20034;-75
2023/09/04 03:50:28;;;;;;;3.60;2.20;;;13.80;99.90;;;;;;4978541;28;20503;-74
2023/09/04 03:52:55;;;;;;;4.03;3.25;;;13.80;99.90;;;;;;4998174;28;20049;-75
2023/09/04 03:55:22;;;;;;;2.60;2.35;;;13.80;99.90;;;;;;4979054;28;20041;-74
2023/09/04 03:57:51;;;;;;;3.47;2.65;;;13.80;99.90;;;;;;4997059;28;20045;-74
2023/09/04 04:00:18;;;;;;;3.08;2.50;;;13.70;99.90;;;;;;4993849;28;20033;-76
2023/09/04 04:02:48;;;;;;;4.28;3.55;;;13.80;99.90;;;;;;5024769;28;20030;-75
2023/09/04 04:05:15;;;;;;;3.00;2.60;;;13.80;99.90;;;;;;5011555;28;20042;-74
2023/09/04 04:07:42;;;;;;;3.35;2.88;;;13.80;99.90;;;;;;4979641;28;20038;-74
2023/09/04 04:10:09;;;;;;;3.47;3.13;;;13.80;99.90;;;;;;4996601;28;20030;-75
2023/09/04 04:12:35;;;;;;;3.97;2.78;;;13.80;99.90;;;;;;4995216;28;20038;-74
2023/09/04 04:15:06;;;;;;;3.05;2.45;;;13.80;99.90;;;;;;4995295;28;20089;-74
2023/09/04 04:17:33;;;;;;;2.92;1.90;;;13.80;99.90;;;;;;4996005;28;20041;-75
2023/09/04 04:20:00;;;;;;;3.75;2.50;;;13.70;99.90;;;;;;5024833;28;20428;-75
2023/09/04 04:22:26;;;;;;;2.85;2.50;;;13.70;99.90;;;;;;5010264;28;20046;-74
2023/09/04 04:24:52;;;;;;;2.83;2.53;;;13.80;99.90;;;;;;4995939;28;20046;-75
2023/09/04 04:27:19;;;;;;;2.47;1.63;;;13.70;99.90;;;;;;4996066;28;20030;-74
2023/09/04 04:29:48;;;;;;;2.55;2.10;;;13.80;99.90;;;;;;5011475;28;20032;-74
2023/09/04 04:32:15;;;;;;;2.20;1.73;;;13.70;99.90;;;;;;4979025;28;20045;-75
2023/09/04 04:34:42;;;;;;;3.05;1.73;;;13.70;99.90;;;;;;4996483;28;20026;-74
2023/09/04 04:37:11;;;;;;;2.70;2.20;;;13.70;99.90;;;;;;5013308;28;20053;-74
2023/09/04 04:39:38;;;;;;;4.03;3.17;;;13.70;99.90;;;;;;5011305;28;20485;-75
2023/09/04 04:42:04;;;;;;;3.28;2.35;;;13.70;99.90;;;;;;5024651;28;20034;-74
2023/09/04 04:44:32;;;;;;;3.50;3.20;;;13.70;99.90;;;;;;5026538;28;20037;-75
2023/09/04 04:46:59;;;;;;;2.78;2.22;;;13.70;99.90;;;;;;4995930;28;20409;-75
2023/09/04 04:49:25;;;;;;;2.78;2.33;;;13.70;99.90;;;;;;4996668;28;20037;-75
2023/09/04 04:51:54;;;;;;;2.80;2.38;;;13.70;99.90;;;;;;5010058;28;20038;-74
2023/09/04 04:54:21;;;;;;;2.97;2.30;;;13.70;99.90;;;;;;4994976;28;20026;-74
2023/09/04 04:56:48;;;;;;;3.08;2.50;;;13.70;99.90;;;;;;4996426;28;20030;-74
2023/09/04 04:59:15;;;;;;;3.72;3.20;;;13.70;99.90;;;;;;4996627;28;20042;-75
2023/09/04 05:01:45;;;;;;;3.38;3.05;;;13.70;99.90;;;;;;4977839;28;20389;-73
2023/09/04 05:04:12;;;;;;;2.53;2.03;;;13.70;99.90;;;;;;5005642;28;20528;-76
2023/09/04 05:06:38;;;;;;;3.40;2.78;;;13.80;99.90;;;;;;5026461;28;20045;-76
2023/09/04 05:09:06;;;;;;;5.95;4.55;;;13.70;99.90;;;;;;5027234;28;20073;-74
2023/09/04 05:11:34;;;;;;;4.82;3.83;;;13.80;99.90;;;;;;5009713;28;20038;-75
2023/09/04 05:14:01;;;;;;;5.00;3.58;;;13.80;99.90;;;;;;5008842;28;20053;-75
2023/09/04 05:16:28;;;;;;;4.80;4.15;;;13.80;99.90;;;;;;4978314;28;20050;-75
2023/09/04 05:18:54;;;;;;;5.07;4.57;;;13.80;99.90;;;;;;4979158;28;20069;-75
2023/09/04 05:21:21;;;;;;;5.70;4.30;;;13.90;99.90;;;;;;5010447;28;20511;-75
2023/09/04 05:23:47;;;;;;;4.32;3.50;;;13.90;99.90;;;;;;5010742;28;20508;-74
2023/09/04 05:26:15;;;;;;;3.85;3.25;;;13.90;99.90;;;;;;5012964;28;20365;-75
2023/09/04 05:28:42;;;;;;;3.40;2.90;;;14.00;99.90;;;;;;5011062;28;20045;-75
2023/09/04 05:31:08;;;;;;;5.43;4.90;;;14.00;99.90;;;;;;4992699;28;20033;-75
2023/09/04 05:33:35;;;;;;;11.23;8.85;;;14.00;99.90;;;;;;4995555;28;20026;-74
2023/09/04 05:36:01;;;;;;;7.13;5.97;;;14.10;99.90;;;;;;4992243;28;22227;-75
2023/09/04 05:38:27;;;;;;;7.43;6.40;;;14.10;99.90;;;;;;5010237;28;20512;-73
2023/09/04 05:40:54;;;;;;;6.07;5.47;;;14.10;99.90;;;;;;4992824;28;20050;-74
2023/09/04 05:43:21;;;;;;;5.07;4.38;;;14.20;99.90;;;;;;4995197;28;20547;-75
2023/09/04 05:45:49;;;;;;;5.35;4.03;;;14.20;99.90;;;;;;4977207;28;22775;-72
2023/09/04 05:48:15;;;;;;;4.32;3.40;;;14.30;99.90;;;;;;4995012;28;20038;-73
2023/09/04 05:50:41;;;;;;;3.80;3.22;;;14.30;99.90;;;;;;5010123;28;20034;-75
2023/09/04 05:53:08;;;;;;;3.80;3.45;;;14.30;99.90;;;;;;4978712;28;20544;-73
2023/09/04 05:55:37;;;;;;;3.67;3.08;;;14.40;99.90;;;;;;5014249;28;20406;-75
2023/09/04 05:58:04;;;;;;;4.63;3.92;;;14.40;99.90;;;;;;4998249;28;20042;-74
2023/09/04 06:00:30;;;;;;;3.97;3.58;;;14.50;99.90;;;;;;4997472;28;20049;-74
2023/09/04 06:02:57;;;;;;;4.18;3.53;;;14.60;99.90;;;;;;5029466;28;20042;-76
2023/09/04 06:05:24;;;;;;;4.22;3.83;;;14.70;99.90;;;;;;4998574;28;20448;-76
2023/09/04 06:07:50;;;;;;;4.20;3.75;;;14.90;99.90;;;;;;4999097;28;20038;-74
2023/09/04 06:10:17;;;;;;;4.43;4.03;;;15.00;99.90;;;;;;4996578;28;20034;-75
2023/09/04 06:12:44;;;;;;;5.70;5.20;;;15.10;99.90;;;;;;4999166;28;20489;-75
2023/09/04 06:15:10;;;;;;;4.50;4.10;;;15.30;99.90;;;;;;5013962;28;20030;-74
2023/09/04 06:17:36;;;;;;;5.38;4.28;;;15.40;99.90;;;;;;4998711;28;20034;-76
2023/09/04 06:20:04;;;;;;;4.38;3.97;;;15.60;99.90;;;;;;4980805;28;20572;-75
2023/09/04 06:22:31;;;;;;;4.82;4.38;;;15.70;99.90;;;;;;4997140;28;20046;-76
2023/09/04 06:24:57;;;;;;;5.30;3.80;;;15.80;99.90;;;;;;4980602;28;20034;-75
2023/09/04 06:27:24;;;;;;;4.35;3.95;;;16.00;99.90;;;;;;5030279;28;20029;-74
2023/09/04 06:29:50;;;;;;;4.13;3.67;;;16.10;99.90;;;;;;5013494;28;20037;-74
2023/09/04 06:32:16;;;;;;;4.70;3.65;;;16.30;99.90;;;;;;4980045;28;20038;-75
2023/09/04 06:34:43;;;;;;;4.63;4.00;;;16.40;99.90;;;;;;4998295;28;20038;-74
2023/09/04 06:37:09;;;;;;;3.40;3.10;;;16.60;99.90;;;;;;5013918;28;20037;-75
2023/09/04 06:39:36;;;;;;;5.90;4.07;;;16.70;99.90;;;;;;4980036;28;20041;-73
2023/09/04 06:42:03;;;;;;;6.10;3.53;;;16.80;99.90;;;;;;4997793;28;20034;-75
2023/09/04 06:44:32;;;;;;;5.55;5.03;;;16.90;99.90;;;;;;4997015;28;20492;-75
2023/09/04 06:46:58;;;;;;;6.38;3.80;;;17.00;99.90;;;;;;5013384;28;20030;-75
2023/09/04 06:49:25;;;;;;;5.20;4.80;;;17.00;99.90;;;;;;4980664;28;20121;-75
2023/09/04 06:51:51;;;;;;;4.35;3.95;;;17.10;99.90;;;;;;4996372;28;20036;-74
2023/09/04 06:54:18;;;;;;;5.10;4.60;;;17.30;99.90;;;;;;5013697;28;20041;-74
2023/09/04 06:56:44;;;;;;;7.00;5.15;;;17.40;99.90;;;;;;4997770;28;20042;-73
2023/09/04 06:59:11;;;;;;;4.80;3.85;;;17.50;99.90;;;;;;4996339;28;20049;-75
2023/09/04 07:01:37;;;;;;;5.47;4.25;;;17.60;99.90;;;;;;4996363;28;20033;-75
2023/09/04 07:04:04;;;;;;;4.63;4.05;;;17.80;99.90;;;;;;4997055;28;20030;-74
2023/09/04 07:06:30;;;;;;;3.75;3.45;;;17.80;99.90;;;;;;4996200;28;20050;-73
2023/09/04 07:08:56;;;;;;;3.97;3.03;;;18.00;99.90;;;;;;5013212;28;20493;-74
2023/09/04 07:11:23;;;;;;;4.43;3.80;;;18.00;99.90;;;;;;4995809;28;20065;-73
2023/09/04 07:13:49;;;;;;;5.10;3.47;;;18.10;99.90;;;;;;4980373;28;20042;-73
2023/09/04 07:16:15;;;;;;;5.68;5.00;;;18.20;99.90;;;;;;4996401;28;20407;-74
2023/09/04 07:18:42;;;;;;;6.47;5.88;;;18.20;99.90;;;;;;4996899;28;20052;-73
2023/09/04 07:21:08;;;;;;;5.82;5.22;;;18.20;99.90;;;;;;4979757;28;20922;-74
2023/09/04 07:23:35;;;;;;;4.78;4.38;;;18.20;99.90;;;;;;5028834;28;20033;-75
2023/09/04 07:26:01;;;;;;;4.25;3.85;;;18.20;99.90;;;;;;4997491;28;20056;-74
2023/09/04 07:28:28;;;;;;;4.55;4.15;;;18.30;99.90;;;;;;4995923;28;20513;-74
2023/09/04 07:31:13;;;;;;;4.72;4.32;;;18.40;99.90;;;;;;4994619;28;20040;-74
2023/09/04 07:33:40;;;;;;;4.15;3.75;;;18.60;99.90;;;;;;5013068;28;20041;-74
2023/09/04 07:36:07;;;;;;;5.00;3.90;;;18.80;99.90;;;;;;4996994;28;20033;-74
2023/09/04 07:38:33;;;;;;;3.80;3.40;;;19.00;99.90;;;;;;4994936;28;20040;-73
2023/09/04 07:41:03;;;;;;;3.00;2.78;;;19.10;99.90;;;;;;4997754;28;20036;-75
2023/09/04 07:43:31;;;;;;;2.47;2.28;;;19.20;99.90;;;;;;5012242;28;20029;-75
2023/09/04 07:45:58;;;;;;;3.47;2.35;;;19.30;99.90;;;;;;4997597;28;20485;-74
2023/09/04 07:48:24;;;;;;;3.38;3.05;;;19.50;99.90;;;;;;4997698;28;20048;-74
2023/09/04 07:50:53;;;;;;;5.28;3.72;;;19.60;99.90;;;;;;4996885;28;20033;-72
2023/09/04 07:53:20;;;;;;;4.25;3.20;;;19.70;99.90;;;;;;4995824;28;20030;-75
2023/09/04 07:55:47;;;;;;;4.20;2.97;;;19.80;99.90;;;;;;4996165;28;20250;-73
2023/09/04 07:58:14;;;;;;;4.20;2.45;;;19.90;99.90;;;;;;4999619;28;20855;-75
2023/09/04 08:00:49;;;;;;;4.18;2.65;;;20.10;99.90;;;;;;4995581;28;20037;-74
2023/09/04 08:03:16;;;;;;;2.38;2.00;;;20.20;99.90;;;;;;4996549;28;20033;-72
2023/09/04 08:05:42;;;;;;;3.38;2.63;;;20.30;99.90;;;;;;5012132;28;20030;-75
2023/09/04 08:08:10;;;;;;;2.97;2.67;;;20.50;99.90;;;;;;4996576;28;20354;-75
2023/09/04 08:10:41;;;;;;;3.40;2.75;;;20.60;99.90;;;;;;5009655;28;20504;-75
2023/09/04 08:13:10;;;;;;;3.00;2.63;;;20.80;99.90;;;;;;4995208;28;20041;-74
2023/09/04 08:15:36;;;;;;;4.15;3.78;;;20.90;99.90;;;;;;4979511;28;20380;-75
2023/09/04 08:18:03;;;;;;;5.13;2.85;;;21.00;99.90;;;;;;4996384;28;20048;-74
2023/09/04 08:20:29;;;;;;;6.28;3.22;;;21.10;99.90;;;;;;5010365;28;20065;-75
2023/09/04 08:22:56;;;;;;;3.10;2.80;;;21.20;99.90;;;;;;4995812;28;20042;-75
2023/09/04 08:25:22;;;;;;;4.43;2.45;;;21.30;99.90;;;;;;5026095;28;20293;-74
2023/09/04 08:27:49;;;;;;;3.92;3.35;;;21.40;99.90;;;;;;4996797;28;20038;-75
2023/09/04 08:30:15;;;;;;;2.60;2.22;;;21.50;99.90;;;;;;5026648;28;20036;-74
2023/09/04 08:32:42;;;;;;;3.00;2.58;;;21.60;99.90;;;;;;4994386;28;20038;-76
2023/09/04 08:35:08;;;;;;;21.45;19.23;;;21.70;99.90;;;;;;4995416;28;20038;-75
2023/09/04 08:37:34;;;;;;;6.57;5.90;;;21.80;99.90;;;;;;4995995;28;20027;-76
2023/09/04 08:40:02;;;;;;;4.28;3.88;;;21.90;99.90;;;;;;5010660;28;20049;-75
2023/09/04 08:42:29;;;;;;;3.40;3.10;;;22.10;99.90;;;;;;4995212;28;20026;-76
2023/09/04 08:44:59;;;;;;;3.78;3.17;;;22.10;99.90;;;;;;4978019;28;20497;-75
2023/09/04 08:47:25;;;;;;;4.13;3.72;;;22.10;99.90;;;;;;4995329;28;20397;-76
2023/09/04 08:49:53;;;;;;;4.15;3.40;;;22.20;99.90;;;;;;4994245;28;20401;-75
2023/09/04 08:52:20;;;;;;;2.10;1.88;;;22.20;99.90;;;;;;5011168;28;20041;-73
2023/09/04 08:54:47;;;;;;;3.95;2.38;;;22.30;99.90;;;;;;4995478;28;20405;-75
2023/09/04 08:57:15;;;;;;;3.83;2.70;;;22.40;99.90;;;;;;4994380;28;20057;-75
2023/09/04 08:59:41;;;;;;;3.95;3.05;;;22.50;99.90;;;;;;5010867;28;20677;-74
2023/09/04 09:02:15;;;;;;;4.50;3.60;;;22.70;99.90;;;;;;4995924;28;20042;-75
2023/09/04 09:04:42;;;;;;;3.47;2.90;;;22.90;99.90;;;;;;4994924;28;20045;-75
2023/09/04 09:07:10;;;;;;;3.38;2.58;;;22.90;99.90;;;;;;5012019;28;20042;-73
2023/09/04 09:09:42;;;;;;;3.75;2.78;;;23.00;99.90;;;;;;5027259;28;20030;-74
2023/09/04 09:12:08;;;;;;;4.35;2.90;;;23.10;99.90;;;;;;4979349;28;20539;-76
2023/09/04 09:14:34;;;;;;;3.55;2.55;;;23.10;99.90;;;;;;5026084;28;20029;-75
2023/09/04 09:17:03;;;;;;;2.70;2.15;;;23.20;99.90;;;;;;4978636;28;20030;-73
2023/09/04 09:19:33;;;;;;;2.30;2.10;;;23.30;99.90;;;;;;4996016;28;20471;-75
2023/09/04 09:22:14;;;;;;;3.20;2.80;;;23.40;99.90;;;;;;4978741;28;20058;-74
2023/09/04 09:25:07;;;;;;;2.90;2.28;;;23.50;99.90;;;;;;4994389;28;20041;-73
2023/09/04 09:27:34;;;;;;;3.30;2.47;;;23.60;99.90;;;;;;4993424;28;20520;-75
2023/09/04 09:30:01;;;;;;;2.90;2.28;;;23.70;99.90;;;;;;5031368;28;20397;-73
2023/09/04 09:32:31;;;;;;;2.67;1.90;;;23.70;99.90;;;;;;5014784;28;22091;-75
2023/09/04 09:34:59;;;;;;;3.35;1.83;;;23.80;99.90;;;;;;4998288;28;20493;-73
2023/09/04 09:37:29;;;;;;;3.10;2.10;;;24.00;99.90;;;;;;4999377;28;20408;-74
2023/09/04 09:39:56;;;;;;;4.55;2.50;;;24.00;99.90;;;;;;5015214;28;20046;-75
2023/09/04 09:42:25;;;;;;;3.83;2.95;;;24.10;99.90;;;;;;4998011;28;20401;-74
2023/09/04 09:44:52;;;;;;;2.95;2.15;;;24.20;99.90;;;;;;4997251;28;20029;-75
2023/09/04 09:47:20;;;;;;;2.05;1.58;;;24.30;99.90;;;;;;5003431;28;20034;-75
2023/09/04 09:49:49;;;;;;;3.45;2.38;;;24.30;99.90;;;;;;5029413;28;20033;-75
2023/09/04 09:52:16;;;;;;;3.13;2.83;;;24.40;99.90;;;;;;4999775;28;20037;-75
2023/09/04 09:54:47;;;;;;;1.80;1.38;;;24.50;99.90;;;;;;5013685;28;20041;-73
2023/09/04 09:57:16;;;;;;;3.77;2.77;;;24.60;99.90;;;;;;5013260;28;20038;-73
2023/09/04 09:59:48;;;;;;;3.20;2.30;;;24.70;99.90;;;;;;5029469;28;20038;-75
2023/09/04 10:02:23;;;;;;;1.95;1.60;;;24.60;99.90;;;;;;4997535;28;20042;-73
2023/09/04 10:04:50;;;;;;;2.60;1.85;;;24.60;99.90;;;;;;4997280;28;20042;-75
2023/09/04 10:07:26;;;;;;;2.67;2.03;;;24.60;99.90;;;;;;4982002;28;20033;-73
2023/09/04 10:10:05;;;;;;;4.28;3.88;;;24.80;99.90;;;;;;5013669;28;20046;-74
2023/09/04 10:12:48;;;;;;;2.33;1.80;;;24.80;99.90;;;;;;4996574;28;20477;-74
2023/09/04 10:15:25;;;;;;;3.10;2.30;;;24.80;99.90;;;;;;4996782;28;20042;-76
2023/09/04 10:18:03;;;;;;;2.55;1.95;;;25.00;99.90;;;;;;4998875;28;20546;-75
2023/09/04 10:20:30;;;;;;;1.88;1.10;;;25.20;99.90;;;;;;5014128;28;20034;-74
2023/09/04 10:23:10;;;;;;;2.15;1.20;;;25.40;99.90;;;;;;4996953;28;20528;-73
2023/09/04 10:25:55;;;;;;;2.55;1.20;;;25.60;99.90;;;;;;4996439;28;20034;-76
2023/09/04 10:28:30;;;;;;;2.00;0.95;;;25.90;99.90;;;;;;4998503;28;20621;-73
2023/09/04 10:31:00;;;;;;;1.88;1.13;;;26.20;99.90;;;;;;4997716;28;20026;-75
2023/09/04 10:33:26;;;;;;;2.45;1.40;;;26.60;99.90;;;;;;4996497;28;20046;-74
2023/09/04 10:35:54;;;;;;;1.33;1.00;;;27.00;99.90;;;;;;4996629;28;20508;-75
2023/09/04 10:38:24;;;;;;;2.25;1.20;;;27.30;99.90;;;;;;5013090;28;21341;-73
2023/09/04 10:40:53;;;;;;;2.30;1.17;;;27.50;99.90;;;;;;4982935;28;20050;-75
2023/09/04 10:43:19;;;;;;;1.80;1.10;;;27.80;99.90;;;;;;5012472;28;20419;-75
2023/09/04 10:46:09;;;;;;;2.20;1.40;;;28.20;99.90;;;;;;4997681;28;20397;-76
2023/09/04 10:48:46;;;;;;;2.22;1.00;;;28.60;99.90;;;;;;4995677;28;20038;-75
2023/09/04 10:51:25;;;;;;;2.67;1.30;;;28.90;99.90;;;;;;5012299;28;20041;-75
2023/09/04 10:53:51;;;;;;;2.53;1.48;;;29.30;99.90;;;;;;5029626;28;20516;-74
2023/09/04 10:56:18;;;;;;;2.05;1.05;;;29.40;99.90;;;;;;5012826;28;20041;-73
2023/09/04 10:59:04;;;;;;;1.98;1.20;;;29.70;99.70;;;;;;5031153;28;20409;-74
2023/09/04 11:01:36;;;;;;;3.40;1.40;;;29.90;99.10;;;;;;4996909;28;20038;-74
2023/09/04 11:04:08;;;;;;;2.70;1.33;;;30.10;98.00;;;;;;4998554;28;20042;-73
2023/09/04 11:06:37;;;;;;;1.80;1.20;;;30.30;97.70;;;;;;5027324;28;20033;-75
2023/09/04 11:09:04;;;;;;;1.75;1.02;;;30.60;97.50;;;;;;5013056;28;20025;-76
2023/09/04 11:11:31;;;;;;;2.20;1.60;;;30.80;97.00;;;;;;5027058;28;20038;-74
2023/09/04 11:14:00;;;;;;;2.63;1.40;;;30.90;96.20;;;;;;4979873;28;20030;-74
2023/09/04 11:16:31;;;;;;;1.60;1.10;;;30.90;95.00;;;;;;4995986;28;20034;-73
2023/09/04 11:19:06;;;;;;;2.20;1.60;;;30.70;94.60;;;;;;4979956;28;20045;-74
2023/09/04 11:21:34;;;;;;;3.35;1.33;;;30.70;94.10;;;;;;4996867;28;20041;-74
2023/09/04 11:24:03;;;;;;;1.85;1.10;;;30.70;93.80;;;;;;5028890;28;20038;-74
2023/09/04 11:26:30;;;;;;;2.08;1.30;;;31.00;93.70;;;;;;4996406;28;20449;-75
2023/09/04 11:29:01;;;;;;;4.03;1.88;;;31.20;93.40;;;;;;5028473;28;20033;-73
2023/09/04 11:31:29;;;;;;;2.58;2.00;;;31.50;93.00;;;;;;5013272;28;20076;-71
2023/09/04 11:33:59;;;;;;;2.47;1.73;;;31.60;92.20;;;;;;4998071;28;20026;-73
2023/09/04 11:36:26;;;;;;;2.50;1.48;;;31.70;92.10;;;;;;5027644;28;20409;-75
2023/09/04 11:39:05;;;;;;;4.22;1.75;;;31.90;91.60;;;;;;4995289;28;20073;-75
2023/09/04 11:41:31;;;;;;;2.40;1.60;;;32.10;91.30;;;;;;4995468;28;20137;-74
2023/09/04 11:43:58;;;;;;;2.38;1.80;;;32.40;91.20;;;;;;4996126;28;20026;-75
2023/09/04 11:46:26;;;;;;;3.55;1.75;;;32.60;90.50;;;;;;4995482;28;20409;-75
2023/09/04 11:48:52;;;;;;;2.78;2.17;;;32.80;90.10;;;;;;5011464;28;20022;-74
2023/09/04 11:51:18;;;;;;;2.25;1.83;;;32.90;89.30;;;;;;5028123;28;20033;-75
2023/09/04 11:53:45;;;;;;;2.22;1.67;;;33.10;88.00;;;;;;4978723;28;20029;-74
2023/09/04 11:56:12;;;;;;;2.30;1.40;;;33.20;87.30;;;;;;4994597;28;20479;-75
2023/09/04 11:58:38;;;;;;;2.08;1.70;;;33.30;86.60;;;;;;5011626;28;20432;-74
2023/09/04 12:01:05;;;;;;;2.90;1.73;;;33.30;85.40;;;;;;4994016;28;20033;-75
2023/09/04 12:03:31;;;;;;;2.05;1.52;;;33.40;85.20;;;;;;5010825;28;20442;-71
2023/09/04 12:05:58;;;;;;;1.92;1.73;;;33.60;84.80;;;;;;4994483;28;20663;-71
2023/09/04 12:08:26;;;;;;;1.90;1.27;;;33.80;83.40;;;;;;5027435;28;20370;-73
2023/09/04 12:10:53;;;;;;;2.25;1.65;;;33.90;82.70;;;;;;5009019;28;20042;-70
2023/09/04 12:13:19;;;;;;;2.55;2.10;;;34.10;81.00;;;;;;4980913;28;20048;-72
2023/09/04 12:15:47;;;;;;;2.53;1.52;;;34.20;80.40;;;;;;4977901;28;20041;-71
2023/09/04 12:18:14;;;;;;;2.30;2.10;;;34.30;79.50;;;;;;4996615;28;20504;-71
2023/09/04 12:20:45;;;;;;;2.30;1.27;;;34.50;78.20;;;;;;4993428;28;20053;-73
2023/09/04 12:23:11;;;;;;;2.28;1.58;;;34.50;77.60;;;;;;4978730;28;20037;-73
2023/09/04 12:25:43;;;;;;;2.65;1.73;;;34.50;77.40;;;;;;5010509;28;20044;-73
2023/09/04 12:28:12;;;;;;;2.17;1.33;;;34.80;77.60;;;;;;5011543;28;20492;-72
2023/09/04 12:30:44;;;;;;;3.50;1.30;;;35.10;76.80;;;;;;4992495;28;20037;-71
2023/09/04 12:33:12;;;;;;;1.65;1.15;;;35.30;75.20;;;;;;4978928;28;20030;-73
2023/09/04 12:35:40;;;;;;;3.63;1.73;;;35.50;74.70;;;;;;4995682;28;20080;-72
2023/09/04 12:38:07;;;;;;;2.00;1.48;;;35.70;73.80;;;;;;5010417;28;20026;-72
2023/09/04 12:40:35;;;;;;;2.35;1.70;;;36.10;73.10;;;;;;5026215;28;20049;-73
2023/09/04 12:43:01;;;;;;;2.90;1.67;;;36.40;72.80;;;;;;5026024;28;20038;-71
2023/09/04 12:45:28;;;;;;;2.88;1.55;;;36.50;71.70;;;;;;5010699;28;20026;-72
2023/09/04 12:47:57;;;;;;;2.13;1.60;;;36.60;70.90;;;;;;4995128;28;20044;-72
2023/09/04 12:50:43;;;;;;;3.33;2.05;;;36.70;70.20;;;;;;5019926;28;20029;-73